Belgrade, MO

6:53 AM CDT on November 01, 2014 (GMT -0500)
Spirit Of Saint Louis | Change Station
CLOSE
Current Station
Airport
Location: Spirit of St Louis,
Elevation: 463 ft
Nearby Weather Stations
Active Advisory: Freeze Warning

Elev 463 ft 38.66 °N, 90.66 °W | Updated 23 hours ago

Clear
Clear
23 °F
Feels Like 16 °F
N
6
Wind Variable Wind from NNW
Gusts 6 mph

Today
High -- | Low -- °F
--% Chance of Precip.
Yesterday
High -- | Low -- °F
Precip. -- in
7:28 AM 6:04 PM
Waxing Gibbous, 66% visible
Pressure 30.19 in
Visibility 10.0 miles
Clouds Mostly Cloudy 2800 ft
Mostly Cloudy 3300 ft
Overcast 4100 ft
Windchill 16 °F
Dew Point 19 °F
Humidity 88%
Rainfall 0.00 in
Snow Depth Not available.
UV 0 out of 12
Pollen .10 out of 12
Air Quality Not available.
Flu Activity Not available.
METAR KSUS 311231Z COR 36016G22KT 10SM BKN028 BKN033 OVC041 08/03 A3019 RMK AO2 CORRECTED TIME OF OBSERVATION

More Conditions Fewer Conditions

Pressure 30.19 in
Visibility 10.0 miles
Clouds Mostly Cloudy 2800 ft
Mostly Cloudy 3300 ft
Overcast 4100 ft
Windchill 16 °F
Dew Point 19 °F
Humidity 88%
Rainfall 0.00 in
Snow Depth Not available.
UV 0 out of 12
Pollen .10 out of 12
Air Quality Not available.
Flu Activity Not available.
METAR KSUS 311231Z COR 36016G22KT 10SM BKN028 BKN033 OVC041 08/03 A3019 RMK AO2 CORRECTED TIME OF OBSERVATION

More Conditions Fewer Conditions

10-Day Weather Forecast

Almanac

Astronomy

Nov. 01, 2014 Rise Set
Actual Time
Civil Twilight
Nautical Twilight
Astronomical Twilight
Moon
Length of Visible Light
Length of Day
Tomorrow will be .
, % of the Moon is Illuminated

Today's Extremes

State Highs State Lows

Community

WunderPhotos

Upload Photos

1,766,903 photos uploaded!

WunderBlogs® & News

Nearby

Air Quality

  Air Quality AQ Index Pollutant
Not available.

Snow Depth

Station Depth Elevation

Earthquake Activity

City Distance Mag. Time & Date
Minimum magnitude displayed is 2.5.

Coastal Water Temperatures

Place Temperature

Nearby Weather Stations